createdAt,value
2018-06-30T00:02:16.248Z,96991.18
2018-06-30T00:04:50.961Z,96994.85
2018-06-30T00:07:22.101Z,96988.91
2018-06-30T00:09:51.992Z,96987.69
2018-06-30T00:12:21.978Z,96990.47
2018-06-30T00:14:51.773Z,96988.13
2018-06-30T00:17:21.484Z,96992.20
2018-06-30T00:19:51.225Z,96987.38
2018-06-30T00:22:21.131Z,96993.44
2018-06-30T00:24:50.876Z,96988.19
2018-06-30T00:27:25.869Z,96986.47
2018-06-30T00:29:55.958Z,96991.33
2018-06-30T00:32:31.023Z,96987.92
2018-06-30T00:35:15.321Z,96990.91
2018-06-30T00:37:56.235Z,96986.01
2018-06-30T00:40:32.195Z,96983.58
2018-06-30T00:43:11.018Z,96977.17
2018-06-30T00:45:54.718Z,96978.45
2018-06-30T00:48:37.411Z,96982.30
2018-06-30T00:51:19.094Z,96984.53
2018-06-30T00:53:56.149Z,96981.84
2018-06-30T00:56:35.182Z,96984.00
2018-06-30T00:59:15.983Z,96973.33
2018-06-30T01:01:51.524Z,96979.02
2018-06-30T01:04:25.513Z,96976.30
2018-06-30T01:07:02.169Z,96980.37
2018-06-30T01:09:50.069Z,96980.32
2018-06-30T01:12:29.996Z,96975.41
2018-06-30T01:15:13.949Z,96968.94
2018-06-30T01:17:52.484Z,96974.38
2018-06-30T01:20:36.970Z,96966.41
2018-06-30T01:23:21.301Z,96966.69
2018-06-30T01:28:41.063Z,96972.27
2018-06-30T01:31:18.280Z,96976.48
2018-06-30T01:34:03.895Z,96978.72
2018-06-30T01:36:49.110Z,96977.39
2018-06-30T01:39:34.685Z,96974.60
2018-06-30T01:42:08.649Z,96979.84
2018-06-30T01:44:47.772Z,96972.67
2018-06-30T01:47:27.982Z,96979.17
2018-06-30T01:50:07.430Z,96976.24
2018-06-30T01:52:46.117Z,96981.33
2018-06-30T01:55:23.643Z,96982.65
2018-06-30T01:58:00.335Z,96985.06
2018-06-30T02:00:38.572Z,96986.41
2018-06-30T02:03:20.283Z,96987.72
2018-06-30T02:05:55.907Z,96986.42
2018-06-30T02:08:31.299Z,96983.75
2018-06-30T02:11:08.581Z,96993.59
2018-06-30T02:13:49.949Z,96997.58
2018-06-30T02:16:28.457Z,96999.25
2018-06-30T02:19:11.868Z,96999.55
2018-06-30T02:21:55.576Z,97002.69
2018-06-30T02:24:35.878Z,96994.16
2018-06-30T02:27:15.986Z,97004.63
2018-06-30T02:29:53.503Z,97006.20
2018-06-30T02:32:33.553Z,97002.95
2018-06-30T02:35:11.067Z,96994.64
2018-06-30T02:37:54.075Z,97000.25
2018-06-30T02:40:32.441Z,97000.22
2018-06-30T02:43:12.511Z,97008.97
2018-06-30T02:45:52.752Z,97007.07
2018-06-30T02:48:44.430Z,97009.28
2018-06-30T02:51:23.961Z,97005.24
2018-06-30T02:54:05.224Z,97006.83
2018-06-30T02:56:42.564Z,97010.16
2018-06-30T02:59:22.720Z,97007.18
2018-06-30T03:02:00.925Z,97011.67
2018-06-30T03:07:17.956Z,97010.70
2018-06-30T03:09:58.247Z,97016.44
2018-06-30T03:12:34.184Z,97015.84
2018-06-30T03:15:17.088Z,97017.48
2018-06-30T03:20:43.727Z,97005.05
2018-06-30T03:23:18.021Z,97014.45
2018-06-30T03:25:48.743Z,97005.39
2018-06-30T03:28:18.498Z,97010.23
2018-06-30T03:30:48.231Z,97010.47
2018-06-30T03:33:18.152Z,97009.48
2018-06-30T03:35:47.939Z,97009.95
2018-06-30T03:38:17.769Z,97014.86
2018-06-30T03:40:47.628Z,97014.41
2018-06-30T03:43:18.012Z,97015.45
2018-06-30T03:45:47.970Z,97014.58
2018-06-30T03:48:17.913Z,97021.45
2018-06-30T03:50:47.775Z,97018.91
2018-06-30T03:53:17.684Z,97016.95
2018-06-30T03:55:47.513Z,97015.95
2018-06-30T03:58:17.400Z,97010.68
2018-06-30T04:00:47.331Z,97009.92
2018-06-30T04:03:17.311Z,97007.81
2018-06-30T04:05:47.243Z,97003.51
2018-06-30T04:08:17.217Z,97000.80
2018-06-30T04:10:47.445Z,97002.97
2018-06-30T04:13:17.321Z,96996.59
2018-06-30T04:15:47.558Z,97000.34
2018-06-30T04:18:17.329Z,96997.66
2018-06-30T04:20:47.095Z,96995.20
2018-06-30T04:23:17.852Z,96988.03
2018-06-30T04:25:47.581Z,96990.94
2018-06-30T04:28:17.427Z,96993.05
2018-06-30T04:30:47.310Z,96981.19
2018-06-30T04:33:17.040Z,96972.78
2018-06-30T04:35:46.911Z,96971.21
2018-06-30T04:38:16.652Z,96980.17
2018-06-30T04:43:21.493Z,96969.25
2018-06-30T04:45:51.189Z,96966.20
2018-06-30T04:48:20.957Z,96963.41
2018-06-30T04:56:01.106Z,96961.76
2018-06-30T04:58:30.999Z,96964.36
2018-06-30T05:01:00.808Z,96962.95
2018-06-30T05:03:30.596Z,96967.55
2018-06-30T05:06:00.405Z,96964.93
2018-06-30T05:08:30.193Z,96952.59
2018-06-30T05:10:59.944Z,96950.23
2018-06-30T05:13:29.748Z,96959.98
2018-06-30T05:15:59.515Z,96956.23
2018-06-30T05:18:29.256Z,96955.80
2018-06-30T05:20:59.140Z,96961.23
2018-06-30T05:23:29.143Z,96956.33
2018-06-30T05:25:58.933Z,96949.74
2018-06-30T05:28:31.125Z,96942.09
2018-06-30T05:31:00.871Z,96945.61
2018-06-30T05:33:33.225Z,96937.24
2018-06-30T05:36:03.555Z,96946.63
2018-06-30T05:38:36.771Z,96941.95
2018-06-30T05:41:07.814Z,96940.72
2018-06-30T05:43:40.177Z,96941.83
2018-06-30T05:46:11.150Z,96948.72
2018-06-30T05:48:41.299Z,96952.77
2018-06-30T05:51:11.334Z,96948.27
2018-06-30T05:53:41.521Z,96949.73
2018-06-30T05:56:12.365Z,96946.56
2018-06-30T05:58:42.922Z,96943.17
2018-06-30T06:01:13.060Z,96941.30
2018-06-30T06:03:43.058Z,96945.91
2018-06-30T06:06:14.608Z,96943.56
2018-06-30T06:08:44.713Z,96940.84
2018-06-30T06:11:17.640Z,96944.74
2018-06-30T06:16:25.936Z,96934.59
2018-06-30T06:19:02.479Z,96936.70
2018-06-30T06:24:12.509Z,96934.90
2018-06-30T06:26:43.031Z,96922.30
2018-06-30T06:29:13.986Z,96917.31
2018-06-30T06:31:45.804Z,96914.28
2018-06-30T06:34:17.208Z,96915.52
2018-06-30T06:36:48.127Z,96925.93
2018-06-30T06:39:20.189Z,96915.02
2018-06-30T06:41:50.019Z,96914.63
2018-06-30T06:46:57.422Z,96910.67
2018-06-30T06:49:27.385Z,96904.30
2018-06-30T06:51:57.953Z,96909.61
2018-06-30T06:54:29.113Z,96910.97
2018-06-30T06:56:59.267Z,96909.13
2018-06-30T06:59:30.909Z,96906.16
2018-06-30T07:02:01.609Z,96914.39
2018-06-30T07:04:31.367Z,96913.41
2018-06-30T07:07:01.620Z,96910.78
2018-06-30T07:09:34.777Z,96910.48
2018-06-30T07:12:06.303Z,96906.88
2018-06-30T07:14:38.096Z,96906.97
2018-06-30T07:17:16.133Z,96903.08
2018-06-30T07:19:46.729Z,96899.24
2018-06-30T07:24:53.643Z,96906.56
2018-06-30T07:27:23.564Z,96907.94
2018-06-30T07:30:01.319Z,96905.59
2018-06-30T07:32:31.926Z,96908.14
2018-06-30T07:35:09.270Z,96905.95
2018-06-30T07:37:39.785Z,96902.96
2018-06-30T07:42:47.549Z,96898.73
2018-06-30T07:45:18.244Z,96909.67
2018-06-30T07:47:49.860Z,96903.95
2018-06-30T07:50:20.783Z,96903.45
2018-06-30T07:52:51.701Z,96896.81
2018-06-30T07:55:21.447Z,96895.46
2018-06-30T07:57:51.173Z,96894.72
2018-06-30T08:00:21.036Z,96890.00
2018-06-30T08:02:50.831Z,96894.88
2018-06-30T08:05:20.632Z,96892.24
2018-06-30T08:07:50.405Z,96889.74
2018-06-30T08:10:20.270Z,96890.99
2018-06-30T08:12:50.618Z,96892.49
2018-06-30T08:15:21.218Z,96896.77
2018-06-30T08:17:51.170Z,96896.08
2018-06-30T08:20:20.933Z,96901.89
2018-06-30T08:22:50.658Z,96900.11
2018-06-30T08:27:56.053Z,96901.20
2018-06-30T08:30:25.753Z,96901.72
2018-06-30T08:32:55.444Z,96899.63
2018-06-30T08:38:00.983Z,96900.89
2018-06-30T08:40:30.865Z,96904.10
2018-06-30T08:43:00.613Z,96900.67
2018-06-30T08:48:09.570Z,96903.02
2018-06-30T08:50:39.366Z,96905.97
2018-06-30T08:55:45.761Z,96896.27
2018-06-30T08:58:15.451Z,96904.25
2018-06-30T09:00:45.264Z,96916.00
2018-06-30T09:03:14.989Z,96922.11
2018-06-30T09:05:44.786Z,96917.42
2018-06-30T09:08:14.555Z,96914.22
2018-06-30T09:10:44.712Z,96918.12
2018-06-30T09:13:14.384Z,96928.30
2018-06-30T09:15:44.126Z,96929.17
2018-06-30T09:18:13.937Z,96927.81
2018-06-30T09:20:43.706Z,96926.27
2018-06-30T09:23:13.486Z,96920.37
2018-06-30T09:25:43.265Z,96926.17
2018-06-30T09:28:13.023Z,96923.38
2018-06-30T09:30:43.251Z,96918.97
2018-06-30T09:33:12.954Z,96916.99
2018-06-30T09:35:42.996Z,96927.45
2018-06-30T09:38:12.795Z,96930.30
2018-06-30T09:40:42.612Z,96928.33
2018-06-30T09:45:50.408Z,96937.28
2018-06-30T09:48:21.441Z,96927.29
2018-06-30T09:50:51.292Z,96921.13
2018-06-30T09:53:25.276Z,96919.94
2018-06-30T09:55:56.277Z,96920.26
2018-06-30T09:58:28.161Z,96924.82
2018-06-30T10:01:03.398Z,96923.98
2018-06-30T10:03:33.096Z,96920.43
2018-06-30T10:06:03.018Z,96918.53
2018-06-30T10:08:33.699Z,96910.43
2018-06-30T10:11:04.420Z,96909.83
2018-06-30T10:13:34.462Z,96908.75
2018-06-30T10:16:04.468Z,96913.65
2018-06-30T10:18:34.233Z,96915.86
2018-06-30T10:23:39.342Z,96900.09
2018-06-30T10:26:09.168Z,96907.84
2018-06-30T10:28:38.855Z,96899.23
2018-06-30T10:31:08.558Z,96913.52
2018-06-30T10:33:38.229Z,96915.48
2018-06-30T10:36:08.953Z,96904.84
2018-06-30T10:38:38.724Z,96901.21
2018-06-30T10:41:08.521Z,96896.90
2018-06-30T10:43:38.800Z,96890.94
2018-06-30T10:46:08.468Z,96895.80
2018-06-30T10:48:38.962Z,96899.48
2018-06-30T10:51:09.250Z,96893.02
2018-06-30T10:53:41.153Z,96886.47
2018-06-30T10:56:11.218Z,96883.52
2018-06-30T10:58:42.976Z,96883.63
2018-06-30T11:01:15.951Z,96875.47
2018-06-30T11:03:45.925Z,96877.86
2018-06-30T11:06:15.662Z,96875.33
2018-06-30T11:08:45.320Z,96876.66
2018-06-30T11:11:18.165Z,96879.50
2018-06-30T11:13:48.612Z,96872.69
2018-06-30T11:16:22.753Z,96871.12
2018-06-30T11:18:53.515Z,96867.53
2018-06-30T11:21:26.131Z,96867.61
2018-06-30T11:24:01.152Z,96860.23
2018-06-30T11:26:31.811Z,96860.91
2018-06-30T11:29:02.754Z,96856.61
2018-06-30T11:31:33.495Z,96852.61
2018-06-30T11:34:04.660Z,96852.77
2018-06-30T11:36:34.759Z,96852.14
2018-06-30T11:39:10.350Z,96846.85
2018-06-30T11:41:40.240Z,96854.36
2018-06-30T11:44:10.325Z,96849.88
2018-06-30T11:46:41.579Z,96856.48
2018-06-30T11:49:12.244Z,96857.91
2018-06-30T11:51:43.549Z,96859.91
2018-06-30T11:54:14.572Z,96856.05
2018-06-30T11:56:46.020Z,96852.10
2018-06-30T11:59:16.612Z,96856.44
2018-06-30T12:01:46.980Z,96864.12
2018-06-30T12:04:17.787Z,96858.66
2018-06-30T12:06:49.407Z,96859.36
2018-06-30T12:09:20.335Z,96850.28
2018-06-30T12:11:50.866Z,96856.54
2018-06-30T12:14:20.780Z,96854.14
2018-06-30T12:16:50.527Z,96847.25
2018-06-30T12:19:20.209Z,96846.77
2018-06-30T12:21:49.985Z,96848.27
2018-06-30T12:24:19.781Z,96838.36
2018-06-30T12:26:49.641Z,96838.78
2018-06-30T12:29:19.407Z,96845.26
2018-06-30T12:31:49.202Z,96852.87
2018-06-30T12:34:19.719Z,96854.20
2018-06-30T12:36:49.434Z,96860.47
2018-06-30T12:39:19.236Z,96861.31
2018-06-30T12:41:49.089Z,96859.80
2018-06-30T12:44:18.755Z,96861.84
2018-06-30T12:46:48.623Z,96858.01
2018-06-30T12:51:54.017Z,96861.41
2018-06-30T12:54:23.998Z,96867.70
2018-06-30T12:56:53.636Z,96869.62
2018-06-30T12:59:23.318Z,96877.47
2018-06-30T13:01:53.072Z,96882.88
2018-06-30T13:06:58.774Z,96891.96
2018-06-30T13:09:28.585Z,96886.09
2018-06-30T13:11:58.298Z,96893.14
2018-06-30T13:14:27.980Z,96902.20
2018-06-30T13:16:57.832Z,96896.09
2018-06-30T13:19:27.726Z,96910.14
2018-06-30T13:21:57.566Z,96910.71
2018-06-30T13:24:27.497Z,96909.40
2018-06-30T13:26:57.217Z,96907.21
2018-06-30T13:29:27.028Z,96909.08
2018-06-30T13:31:57.704Z,96908.87
2018-06-30T13:34:27.516Z,96910.69
2018-06-30T13:36:57.160Z,96907.23
2018-06-30T13:39:26.910Z,96923.36
2018-06-30T13:41:56.657Z,96924.19
2018-06-30T13:44:26.534Z,96928.13
2018-06-30T13:46:56.258Z,96926.80
2018-06-30T13:49:26.130Z,96906.64
2018-06-30T13:51:56.071Z,96909.11
2018-06-30T13:54:25.712Z,96914.89
2018-06-30T13:56:55.456Z,96913.88
2018-06-30T13:59:25.169Z,96915.33
2018-06-30T14:01:54.940Z,96915.40
2018-06-30T14:04:24.765Z,96916.22
2018-06-30T14:06:54.591Z,96912.39
2018-06-30T14:09:24.283Z,96911.79
2018-06-30T14:11:54.028Z,96914.91
2018-06-30T14:14:24.063Z,96909.44
2018-06-30T14:16:54.748Z,96915.22
2018-06-30T14:19:24.594Z,96927.77
2018-06-30T14:21:54.401Z,96929.91
2018-06-30T14:24:25.198Z,96930.40
2018-06-30T14:26:54.966Z,96932.14
2018-06-30T14:32:00.077Z,96940.01
2018-06-30T14:34:30.220Z,96939.20
2018-06-30T14:37:00.002Z,96940.98
2018-06-30T14:39:29.702Z,96940.19
2018-06-30T14:41:59.481Z,96937.69
2018-06-30T14:44:30.964Z,96942.56
2018-06-30T14:47:01.068Z,96937.92
2018-06-30T14:49:31.081Z,96939.20
2018-06-30T14:52:00.808Z,96937.78
2018-06-30T14:54:30.953Z,96949.26
2018-06-30T14:57:00.724Z,96943.88
2018-06-30T14:59:30.713Z,96940.82
2018-06-30T15:02:00.678Z,96950.11
2018-06-30T15:04:30.455Z,96950.65
2018-06-30T15:07:00.354Z,96961.44
2018-06-30T15:09:30.265Z,96964.54
2018-06-30T15:14:35.808Z,96968.59
2018-06-30T15:17:05.787Z,96978.01
2018-06-30T15:19:35.692Z,96976.97
2018-06-30T15:22:05.559Z,96976.13
2018-06-30T15:24:35.367Z,96979.34
2018-06-30T15:29:40.502Z,96980.78
2018-06-30T15:32:10.197Z,96988.88
2018-06-30T15:34:39.959Z,96988.31
2018-06-30T15:37:09.862Z,96985.89
2018-06-30T15:39:39.635Z,96983.41
2018-06-30T15:42:09.328Z,96990.55
2018-06-30T15:44:42.421Z,96983.17
2018-06-30T15:47:12.222Z,96986.20
2018-06-30T15:49:41.919Z,96984.91
2018-06-30T15:52:11.796Z,96985.42
2018-06-30T15:54:41.631Z,96993.61
2018-06-30T15:57:14.995Z,96994.42
2018-06-30T15:59:44.727Z,96997.41
2018-06-30T16:02:14.594Z,97004.13
2018-06-30T16:04:44.544Z,97018.53
2018-06-30T16:07:14.338Z,97020.16
2018-06-30T16:09:44.141Z,97023.33
2018-06-30T16:12:13.893Z,97017.22
2018-06-30T16:14:43.720Z,97022.30
2018-06-30T16:17:13.440Z,97017.28
2018-06-30T16:19:43.296Z,97024.48
2018-06-30T16:22:13.074Z,97030.23
2018-06-30T16:24:43.152Z,97038.46
2018-06-30T16:27:12.868Z,97046.28
2018-06-30T16:29:42.655Z,97044.78
2018-06-30T16:32:12.534Z,97048.05
2018-06-30T16:34:42.400Z,97058.04
2018-06-30T16:37:12.293Z,97052.52
2018-06-30T16:39:42.100Z,97054.13
2018-06-30T16:42:12.293Z,97052.23
2018-06-30T16:44:42.115Z,97056.45
2018-06-30T16:47:11.873Z,97055.62
2018-06-30T16:49:41.856Z,97058.53
2018-06-30T16:52:11.794Z,97058.70
2018-06-30T16:54:41.667Z,97063.38
2018-06-30T16:57:11.355Z,97065.59
2018-06-30T16:59:41.099Z,97069.73
2018-06-30T17:02:10.904Z,97069.78
2018-06-30T17:04:40.737Z,97066.77
2018-06-30T17:07:10.575Z,97074.52
2018-06-30T17:09:40.355Z,97080.80
2018-06-30T17:12:10.090Z,97084.33
2018-06-30T17:14:39.785Z,97082.05
2018-06-30T17:17:09.559Z,97080.34
2018-06-30T17:19:39.401Z,97084.48
2018-06-30T17:22:09.114Z,97080.75
2018-06-30T17:24:38.963Z,97086.20
2018-06-30T17:27:08.880Z,97088.53
2018-06-30T17:29:38.701Z,97095.14
2018-06-30T17:32:08.577Z,97107.05
2018-06-30T17:34:38.313Z,97118.27
2018-06-30T17:37:08.192Z,97122.01
2018-06-30T17:39:37.933Z,97122.05
2018-06-30T17:42:07.638Z,97124.20
2018-06-30T17:44:37.473Z,97124.67
2018-06-30T17:47:07.210Z,97129.85
2018-06-30T17:49:36.981Z,97125.69
2018-06-30T17:52:06.718Z,97125.73
2018-06-30T17:54:36.590Z,97131.12
2018-06-30T17:57:06.368Z,97137.30
2018-06-30T17:59:36.168Z,97139.69
2018-06-30T18:02:06.047Z,97143.64
2018-06-30T18:04:35.888Z,97158.86
2018-06-30T18:07:05.642Z,97163.85
2018-06-30T18:09:35.486Z,97155.08
2018-06-30T18:12:05.243Z,97163.70
2018-06-30T18:14:34.950Z,97170.90
2018-06-30T18:17:04.777Z,97164.29
2018-06-30T18:19:34.533Z,97156.96
2018-06-30T18:22:04.313Z,97159.98
2018-06-30T18:24:34.111Z,97160.27
2018-06-30T18:27:03.801Z,97170.58
2018-06-30T18:29:33.711Z,97176.39
2018-06-30T18:32:03.617Z,97184.77
2018-06-30T18:34:33.459Z,97183.09
2018-06-30T18:37:03.201Z,97194.73
2018-06-30T18:39:33.021Z,97204.19
2018-06-30T18:42:03.173Z,97201.50
2018-06-30T18:44:33.184Z,97201.94
2018-06-30T18:47:03.640Z,97202.09
2018-06-30T18:49:33.569Z,97202.31
2018-06-30T18:52:03.323Z,97209.97
2018-06-30T18:54:39.510Z,97211.11
2018-06-30T18:57:09.363Z,97201.60
2018-06-30T18:59:39.119Z,97213.68
2018-06-30T19:02:08.937Z,97218.00
2018-06-30T19:04:38.741Z,97220.16
2018-06-30T19:07:08.668Z,97225.90
2018-06-30T19:09:38.468Z,97227.92
2018-06-30T19:12:08.348Z,97235.26
2018-06-30T19:14:38.286Z,97241.55
2018-06-30T19:17:08.253Z,97249.20
2018-06-30T19:19:38.188Z,97258.47
2018-06-30T19:22:07.972Z,97264.03
2018-06-30T19:24:37.777Z,97261.91
2018-06-30T19:27:07.518Z,97273.18
2018-06-30T19:29:37.433Z,97264.05
2018-06-30T19:32:07.206Z,97266.23
2018-06-30T19:34:38.108Z,97278.06
2018-06-30T19:37:07.942Z,97282.94
2018-06-30T19:39:37.765Z,97282.69
2018-06-30T19:44:42.430Z,97293.70
2018-06-30T19:47:12.248Z,97298.23
2018-06-30T19:49:41.967Z,97309.22
2018-06-30T19:52:11.902Z,97311.08
2018-06-30T19:54:42.361Z,97309.25
2018-06-30T19:59:47.332Z,97321.58
2018-06-30T20:02:17.560Z,97323.18
2018-06-30T20:04:47.579Z,97330.14
2018-06-30T20:07:17.386Z,97340.59
2018-06-30T20:09:47.198Z,97342.48
2018-06-30T20:12:16.998Z,97351.36
2018-06-30T20:14:46.792Z,97349.20
2018-06-30T20:17:16.604Z,97357.22
2018-06-30T20:19:46.363Z,97363.84
2018-06-30T20:22:16.320Z,97367.61
2018-06-30T20:24:46.418Z,97378.08
2018-06-30T20:29:51.821Z,97385.77
2018-06-30T20:32:21.781Z,97384.64
2018-06-30T20:34:51.748Z,97392.19
2018-06-30T20:37:21.532Z,97388.75
2018-06-30T20:39:51.495Z,97389.03
2018-06-30T20:42:21.392Z,97391.14
2018-06-30T20:44:51.211Z,97393.33
2018-06-30T20:47:21.634Z,97405.62
2018-06-30T20:49:51.571Z,97409.92
2018-06-30T20:52:21.602Z,97414.36
2018-06-30T20:54:51.553Z,97410.82
2018-06-30T20:57:21.418Z,97412.44
2018-06-30T20:59:51.222Z,97426.34
2018-06-30T21:02:20.971Z,97429.25
2018-06-30T21:04:50.733Z,97434.85
2018-06-30T21:07:20.588Z,97442.08
2018-06-30T21:09:50.684Z,97442.64
2018-06-30T21:12:20.560Z,97446.55
2018-06-30T21:14:51.097Z,97451.24
2018-06-30T21:17:20.879Z,97456.16
2018-06-30T21:19:50.872Z,97461.47
2018-06-30T21:22:20.726Z,97467.33
2018-06-30T21:24:50.795Z,97468.33
2018-06-30T21:27:20.734Z,97466.03
2018-06-30T21:29:50.648Z,97478.13
2018-06-30T21:32:20.757Z,97477.42
2018-06-30T21:34:50.556Z,97476.11
2018-06-30T21:37:20.376Z,97473.45
2018-06-30T21:39:50.117Z,97479.50
2018-06-30T21:42:19.986Z,97475.35
2018-06-30T21:47:18.378Z,97475.45
2018-06-30T21:49:48.261Z,97478.13
2018-06-30T21:52:18.100Z,97489.90
2018-06-30T21:54:47.859Z,97495.87
2018-06-30T21:57:17.654Z,97492.00
2018-06-30T21:59:47.412Z,97489.53
2018-06-30T22:02:17.190Z,97494.01
2018-06-30T22:04:46.912Z,97500.69
2018-06-30T22:07:22.968Z,97498.59
2018-06-30T22:09:52.856Z,97504.92
2018-06-30T22:12:22.808Z,97508.89
2018-06-30T22:14:52.661Z,97509.61
2018-06-30T22:17:22.489Z,97501.02
2018-06-30T22:19:52.311Z,97499.48
2018-06-30T22:22:22.078Z,97501.29
2018-06-30T22:24:51.936Z,97497.88
2018-06-30T22:27:21.684Z,97496.80
2018-06-30T22:29:51.496Z,97492.30
2018-06-30T22:32:21.320Z,97501.25
2018-06-30T22:34:51.012Z,97504.69
2018-06-30T22:37:20.883Z,97500.34
2018-06-30T22:42:37.339Z,97502.26
2018-06-30T22:45:07.184Z,97502.70
2018-06-30T22:47:37.023Z,97500.53
2018-06-30T22:50:07.191Z,97499.39
2018-06-30T22:52:37.436Z,97511.23
2018-06-30T22:55:11.202Z,97509.95
2018-06-30T22:57:41.105Z,97512.42
2018-06-30T23:00:12.068Z,97514.21
2018-06-30T23:02:41.560Z,97519.75
2018-06-30T23:05:11.349Z,97520.95
2018-06-30T23:07:41.058Z,97521.48
2018-06-30T23:10:12.379Z,97517.13
2018-06-30T23:12:42.687Z,97523.13
2018-06-30T23:15:12.804Z,97521.88
2018-06-30T23:17:42.595Z,97523.87
2018-06-30T23:20:12.364Z,97523.55
2018-06-30T23:22:58.490Z,97522.85
2018-06-30T23:25:29.529Z,97526.28
2018-06-30T23:27:59.738Z,97528.51
2018-06-30T23:30:30.022Z,97534.42
2018-06-30T23:32:59.850Z,97532.51
2018-06-30T23:35:30.521Z,97526.73
2018-06-30T23:38:01.062Z,97528.51
2018-06-30T23:40:30.785Z,97526.20
2018-06-30T23:43:00.548Z,97532.37
2018-06-30T23:45:30.272Z,97529.85
2018-06-30T23:48:00.036Z,97526.09
2018-06-30T23:50:29.922Z,97524.05
2018-06-30T23:52:59.759Z,97522.23
2018-06-30T23:55:29.576Z,97527.22
2018-06-30T23:57:59.411Z,97526.86
